Altus Air Force Base
KLTS : now visible

Airfield :











YOU CAN JOIN US ON...

 
LOGIN :

Register | Disclaimer

   EN    FR    IT 

 









Legend :    VFR   Marginal VFR   IFR   Intensive IFR   Very Intensive IFR
Visi :
Ceiling :
>= 8 km
>= 3000ft
5 to 8 km
1000 to 3000 ft
1500m to 5 km
500 to 1000 ft
800 to 1500m
200 to 500 ft
< 800m
< 200 ft
Symbols :   Thunderstorms  Fog  Heavy snow  Heavy precipitations  Wind > 20 kt






- Airport Elevation : 1382 ft


KLTS - Altus Air Force Base

CURRENT METAR :
  • 280455Z 36020G33KT 10SM SCT042 07/M06 A2987 RMK AO2A PK WND 02035/05 PRESRR SLP109 T00711063 $

EXPIRED METARs :
  • 280355Z 01021G36KT 10SM OVC035 09/M06 A2979 RMK AO2A PK WND 36038/34 PRESRR SLP082 T00871056 $
  • 280340Z 01028G38KT 10SM OVC035 09/M05 A2977 RMK AO2A SLP076 $
  • 280325Z 01025G35KT 10SM BKN100 10/M05 A2976 RMK AO2A PRESRR SLP072 $
  • 280255Z 01027G34KT 10SM BKN180 12/M03 A2972 RMK AO2A PK WND 02037/22 PRESRR SLP058 T01161034 52076 $
  • 280155Z 01026G35KT 8SM FEW010 BKN120 15/M01 A2964 RMK AO2A PK WND 01037/37 PRESRR SLP033 T01511007 $
  • 280130Z 02018G30KT 10SM SQ CLR 23/01 A2956 RMK AO2A PRESRR SLP002 $
  • 280055Z 25009KT 10SM BKN180 23/02 A2952 RMK AO2A SLP984 T02320021 $

TAF AMD TAF KLTS
Valid from the 28 at 01:00 until the 29 at 07:00 UTC


280133Z 2801/2907 01020G30KT 9999 OVC180 510104 QNH2949INS
BECMG 2801/2802 01025G43KT 9999 FEW080 OVC200 520006 QNH2952INS
BECMG 2810/2811 01015G30KT 9999 OVC200 510005 QNH3013INS
BECMG 2815/2816 03010G18KT 9999 BKN180 510102 QNH3030INS
BECMG 2900/2901 VRB06KT 9999 SCT180 QNH3032INS TX22/2802Z TN01/2813Z
KZFW FIR / North America



MET'MAP, your aeronautical weather chart ! - Copyright ORBIFLY December 2007 - Disclaimer

ORBIFLY MET'MAP TEAM :

Programming & Development : Alexandra Zaïnal
Original concept : Baudouin d'Aumeries
Technical & hardware support : Manuel Goepfert
Assistance : Marc-Olivier Méhu




SOURCES & CREDITS :

   NOAA       Earth
Advisory